sensor_id;sensor_type;location;lat;lon;timestamp;pressure;altitude;pressure_sealevel;temperature;humidity
3206;BME280;1615;53.602;11.418;2023-03-18T00:00:09;100462.22;;;11.33;100.00
3206;BME280;1615;53.602;11.418;2023-03-18T00:02:36;100463.09;;;11.29;100.00
3206;BME280;1615;53.602;11.418;2023-03-18T00:05:02;100457.13;;;11.27;100.00
3206;BME280;1615;53.602;11.418;2023-03-18T00:07:28;100452.88;;;11.21;100.00
3206;BME280;1615;53.602;11.418;2023-03-18T00:09:54;100449.00;;;11.22;100.00
3206;BME280;1615;53.602;11.418;2023-03-18T00:12:19;100443.50;;;11.22;100.00
3206;BME280;1615;53.602;11.418;2023-03-18T00:14:45;100436.41;;;11.21;100.00
3206;BME280;1615;53.602;11.418;2023-03-18T00:17:11;100435.56;;;11.07;100.00
3206;BME280;1615;53.602;11.418;2023-03-18T00:19:37;100396.97;;;10.90;100.00
3206;BME280;1615;53.602;11.418;2023-03-18T00:22:02;100420.34;;;11.14;100.00
3206;BME280;1615;53.602;11.418;2023-03-18T00:24:28;100423.38;;;11.13;100.00
3206;BME280;1615;53.602;11.418;2023-03-18T00:26:54;100427.25;;;11.12;100.00
3206;BME280;1615;53.602;11.418;2023-03-18T00:29:20;100426.13;;;11.13;100.00
3206;BME280;1615;53.602;11.418;2023-03-18T00:31:45;100415.03;;;10.91;100.00
3206;BME280;1615;53.602;11.418;2023-03-18T00:34:11;100404.72;;;10.88;100.00
3206;BME280;1615;53.602;11.418;2023-03-18T00:36:37;100405.31;;;10.98;100.00
3206;BME280;1615;53.602;11.418;2023-03-18T00:39:04;100405.50;;;10.75;100.00
3206;BME280;1615;53.602;11.418;2023-03-18T00:41:31;100428.66;;;10.82;100.00
3206;BME280;1615;53.602;11.418;2023-03-18T00:44:01;100431.69;;;10.81;100.00
3206;BME280;1615;53.602;11.418;2023-03-18T00:46:28;100427.91;;;10.77;100.00
3206;BME280;1615;53.602;11.418;2023-03-18T00:48:57;100430.28;;;10.83;100.00
3206;BME280;1615;53.602;11.418;2023-03-18T00:51:25;100321.78;;;10.23;100.00
3206;BME280;1615;53.602;11.418;2023-03-18T00:53:54;100436.91;;;10.96;100.00
3206;BME280;1615;53.602;11.418;2023-03-18T00:56:21;100429.16;;;10.84;100.00
3206;BME280;1615;53.602;11.418;2023-03-18T00:58:49;100438.19;;;10.85;100.00
3206;BME280;1615;53.602;11.418;2023-03-18T01:01:17;100434.97;;;10.96;100.00
3206;BME280;1615;53.602;11.418;2023-03-18T01:03:43;100476.91;;;10.97;100.00
3206;BME280;1615;53.602;11.418;2023-03-18T01:06:10;100449.47;;;10.97;100.00
3206;BME280;1615;53.602;11.418;2023-03-18T01:08:36;100338.44;;;10.27;100.00
3206;BME280;1615;53.602;11.418;2023-03-18T01:11:02;100449.19;;;10.98;100.00
3206;BME280;1615;53.602;11.418;2023-03-18T01:13:28;100444.53;;;10.99;100.00
3206;BME280;1615;53.602;11.418;2023-03-18T01:15:54;100441.25;;;10.97;100.00
3206;BME280;1615;53.602;11.418;2023-03-18T01:18:20;100299.03;;;10.09;100.00
3206;BME280;1615;53.602;11.418;2023-03-18T01:20:46;100443.19;;;10.96;100.00
3206;BME280;1615;53.602;11.418;2023-03-18T01:23:11;100443.69;;;10.98;100.00
3206;BME280;1615;53.602;11.418;2023-03-18T01:25:38;100434.13;;;10.82;100.00
3206;BME280;1615;53.602;11.418;2023-03-18T01:28:04;100435.78;;;10.97;100.00
3206;BME280;1615;53.602;11.418;2023-03-18T01:30:30;100434.56;;;11.03;100.00
3206;BME280;1615;53.602;11.418;2023-03-18T01:32:56;100437.81;;;11.05;100.00
3206;BME280;1615;53.602;11.418;2023-03-18T01:35:23;100437.81;;;11.05;100.00
3206;BME280;1615;53.602;11.418;2023-03-18T01:37:50;100417.19;;;10.94;100.00
3206;BME280;1615;53.602;11.418;2023-03-18T01:40:17;100322.63;;;10.37;100.00
3206;BME280;1615;53.602;11.418;2023-03-18T01:42:47;100432.72;;;11.12;100.00
3206;BME280;1615;53.602;11.418;2023-03-18T01:45:24;100428.75;;;11.18;100.00
3206;BME280;1615;53.602;11.418;2023-03-18T01:47:54;100383.56;;;10.88;100.00
3206;BME280;1615;53.602;11.418;2023-03-18T01:50:23;100434.97;;;11.10;100.00
3206;BME280;1615;53.602;11.418;2023-03-18T01:53:08;100442.47;;;11.18;100.00
3206;BME280;1615;53.602;11.418;2023-03-18T01:55:35;100437.00;;;11.18;100.00
3206;BME280;1615;53.602;11.418;2023-03-18T01:58:03;100443.31;;;11.18;100.00
3206;BME280;1615;53.602;11.418;2023-03-18T02:00:34;100425.94;;;11.09;100.00
3206;BME280;1615;53.602;11.418;2023-03-18T02:03:02;100434.16;;;11.23;100.00
3206;BME280;1615;53.602;11.418;2023-03-18T02:05:29;100446.16;;;11.27;100.00
3206;BME280;1615;53.602;11.418;2023-03-18T02:07:54;100444.44;;;11.31;100.00
3206;BME280;1615;53.602;11.418;2023-03-18T02:10:23;100406.13;;;11.12;100.00
3206;BME280;1615;53.602;11.418;2023-03-18T02:13:04;100472.56;;;11.36;100.00
3206;BME280;1615;53.602;11.418;2023-03-18T02:15:30;100368.91;;;10.93;100.00
3206;BME280;1615;53.602;11.418;2023-03-18T02:18:02;100442.47;;;11.45;100.00
3206;BME280;1615;53.602;11.418;2023-03-18T02:23:50;100446.53;;;11.47;100.00
3206;BME280;1615;53.602;11.418;2023-03-18T02:26:30;100448.38;;;11.52;100.00
3206;BME280;1615;53.602;11.418;2023-03-18T02:29:00;100330.53;;;10.66;100.00
3206;BME280;1615;53.602;11.418;2023-03-18T02:31:30;100460.78;;;11.36;100.00
3206;BME280;1615;53.602;11.418;2023-03-18T02:33:56;100459.78;;;11.32;100.00
3206;BME280;1615;53.602;11.418;2023-03-18T02:36:25;100454.69;;;11.12;100.00
3206;BME280;1615;53.602;11.418;2023-03-18T02:38:55;100459.34;;;10.98;100.00
3206;BME280;1615;53.602;11.418;2023-03-18T02:41:24;100457.31;;;10.90;100.00
3206;BME280;1615;53.602;11.418;2023-03-18T02:43:51;100454.44;;;10.81;100.00
3206;BME280;1615;53.602;11.418;2023-03-18T02:46:46;100451.63;;;11.00;100.00
3206;BME280;1615;53.602;11.418;2023-03-18T02:49:12;100446.75;;;10.97;100.00
3206;BME280;1615;53.602;11.418;2023-03-18T02:51:39;100445.13;;;10.96;100.00
3206;BME280;1615;53.602;11.418;2023-03-18T02:54:13;100420.13;;;10.84;100.00
3206;BME280;1615;53.602;11.418;2023-03-18T02:56:40;100437.00;;;11.04;100.00
3206;BME280;1615;53.602;11.418;2023-03-18T02:59:07;100439.84;;;11.13;100.00
3206;BME280;1615;53.602;11.418;2023-03-18T03:01:33;100443.09;;;11.15;100.00
3206;BME280;1615;53.602;11.418;2023-03-18T03:04:00;100339.06;;;10.37;100.00
3206;BME280;1615;53.602;11.418;2023-03-18T03:06:25;100457.41;;;11.12;100.00
3206;BME280;1615;53.602;11.418;2023-03-18T03:08:51;100553.53;;;11.07;100.00
3206;BME280;1615;53.602;11.418;2023-03-18T03:11:17;100457.41;;;10.85;100.00
3206;BME280;1615;53.602;11.418;2023-03-18T03:13:44;100459.94;;;10.81;100.00
3206;BME280;1615;53.602;11.418;2023-03-18T03:16:11;100457.28;;;10.76;100.00
3206;BME280;1615;53.602;11.418;2023-03-18T03:18:36;100459.94;;;10.81;100.00
3206;BME280;1615;53.602;11.418;2023-03-18T03:21:02;100460.16;;;10.85;100.00
3206;BME280;1615;53.602;11.418;2023-03-18T03:23:27;100416.72;;;10.60;100.00
3206;BME280;1615;53.602;11.418;2023-03-18T03:25:53;100459.41;;;10.79;100.00
3206;BME280;1615;53.602;11.418;2023-03-18T03:28:18;100468.25;;;10.76;100.00
3206;BME280;1615;53.602;11.418;2023-03-18T03:30:44;100333.78;;;9.77;100.00
3206;BME280;1615;53.602;11.418;2023-03-18T03:33:10;100422.88;;;10.38;100.00
3206;BME280;1615;53.602;11.418;2023-03-18T03:35:36;100445.88;;;10.56;100.00
3206;BME280;1615;53.602;11.418;2023-03-18T03:38:02;100450.53;;;10.55;100.00
3206;BME280;1615;53.602;11.418;2023-03-18T03:40:27;100367.19;;;10.11;100.00
3206;BME280;1615;53.602;11.418;2023-03-18T03:42:53;100455.72;;;10.57;100.00
3206;BME280;1615;53.602;11.418;2023-03-18T03:45:18;100456.31;;;10.54;100.00
3206;BME280;1615;53.602;11.418;2023-03-18T03:47:45;100460.25;;;10.48;100.00
3206;BME280;1615;53.602;11.418;2023-03-18T03:50:11;100456.31;;;10.54;100.00
3206;BME280;1615;53.602;11.418;2023-03-18T03:52:38;100454.59;;;10.58;100.00
3206;BME280;1615;53.602;11.418;2023-03-18T03:55:05;100465.97;;;10.65;100.00
3206;BME280;1615;53.602;11.418;2023-03-18T03:57:31;100327.53;;;9.90;100.00
3206;BME280;1615;53.602;11.418;2023-03-18T03:59:56;100456.06;;;10.69;100.00
3206;BME280;1615;53.602;11.418;2023-03-18T04:02:23;100446.13;;;10.73;100.00
3206;BME280;1615;53.602;11.418;2023-03-18T04:04:49;100372.91;;;10.28;100.00
3206;BME280;1615;53.602;11.418;2023-03-18T04:07:15;100305.84;;;9.93;100.00
3206;BME280;1615;53.602;11.418;2023-03-18T04:09:40;100436.69;;;10.79;100.00
3206;BME280;1615;53.602;11.418;2023-03-18T04:12:08;100442.56;;;10.86;100.00
3206;BME280;1615;53.602;11.418;2023-03-18T04:14:34;100445.13;;;10.96;100.00
3206;BME280;1615;53.602;11.418;2023-03-18T04:16:59;100453.25;;;11.01;100.00
3206;BME280;1615;53.602;11.418;2023-03-18T04:19:25;100457.31;;;11.03;100.00
3206;BME280;1615;53.602;11.418;2023-03-18T04:21:52;100471.13;;;10.98;100.00
3206;BME280;1615;53.602;11.418;2023-03-18T04:24:18;100469.91;;;10.91;100.00
3206;BME280;1615;53.602;11.418;2023-03-18T04:26:43;100473.34;;;10.83;100.00
3206;BME280;1615;53.602;11.418;2023-03-18T04:29:08;100466.84;;;10.79;100.00
3206;BME280;1615;53.602;11.418;2023-03-18T04:31:34;100478.41;;;10.76;100.00
3206;BME280;1615;53.602;11.418;2023-03-18T04:34:01;100474.53;;;10.77;100.00
3206;BME280;1615;53.602;11.418;2023-03-18T04:36:26;100477.59;;;10.75;100.00
3206;BME280;1615;53.602;11.418;2023-03-18T04:38:52;100317.16;;;9.73;100.00
3206;BME280;1615;53.602;11.418;2023-03-18T04:41:18;100477.97;;;10.69;100.00
3206;BME280;1615;53.602;11.418;2023-03-18T04:43:43;100477.97;;;10.69;100.00
3206;BME280;1615;53.602;11.418;2023-03-18T04:46:09;100476.28;;;10.73;100.00
3206;BME280;1615;53.602;11.418;2023-03-18T04:48:36;100421.03;;;10.34;100.00
3206;BME280;1615;53.602;11.418;2023-03-18T04:51:02;100489.63;;;10.61;100.00
3206;BME280;1615;53.602;11.418;2023-03-18T04:53:27;100475.91;;;10.61;100.00
3206;BME280;1615;53.602;11.418;2023-03-18T04:55:53;100472.09;;;10.62;100.00
3206;BME280;1615;53.602;11.418;2023-03-18T04:58:18;100476.25;;;10.59;100.00
3206;BME280;1615;53.602;11.418;2023-03-18T05:00:44;100474.91;;;10.57;100.00
3206;BME280;1615;53.602;11.418;2023-03-18T05:03:10;100463.94;;;10.57;100.00
3206;BME280;1615;53.602;11.418;2023-03-18T05:05:36;100466.59;;;10.62;100.00
3206;BME280;1615;53.602;11.418;2023-03-18T05:08:01;100476.66;;;10.66;100.00
3206;BME280;1615;53.602;11.418;2023-03-18T05:10:27;100357.00;;;9.98;100.00
3206;BME280;1615;53.602;11.418;2023-03-18T05:12:52;100476.34;;;10.68;100.00
3206;BME280;1615;53.602;11.418;2023-03-18T05:15:18;100460.09;;;10.58;100.00
3206;BME280;1615;53.602;11.418;2023-03-18T05:17:45;100476.56;;;10.71;100.00
3206;BME280;1615;53.602;11.418;2023-03-18T05:20:11;100477.41;;;10.72;100.00
3206;BME280;1615;53.602;11.418;2023-03-18T05:22:37;100483.16;;;10.70;100.00
3206;BME280;1615;53.602;11.418;2023-03-18T05:25:05;100481.44;;;10.74;100.00
3206;BME280;1615;53.602;11.418;2023-03-18T05:27:31;100424.31;;;10.36;100.00
3206;BME280;1615;53.602;11.418;2023-03-18T05:29:57;100482.75;;;10.77;100.00
3206;BME280;1615;53.602;11.418;2023-03-18T05:32:22;100329.78;;;9.88;100.00
3206;BME280;1615;53.602;11.418;2023-03-18T05:34:48;100484.91;;;10.80;100.00
3206;BME280;1615;53.602;11.418;2023-03-18T05:37:13;100475.56;;;10.81;100.00
3206;BME280;1615;53.602;11.418;2023-03-18T05:39:40;100450.16;;;10.62;100.00
3206;BME280;1615;53.602;11.418;2023-03-18T05:42:06;100366.78;;;10.04;100.00
3206;BME280;1615;53.602;11.418;2023-03-18T05:44:32;100488.97;;;10.82;100.00
3206;BME280;1615;53.602;11.418;2023-03-18T05:46:58;100483.97;;;10.71;100.00
3206;BME280;1615;53.602;11.418;2023-03-18T05:49:23;100497.88;;;10.74;100.00
3206;BME280;1615;53.602;11.418;2023-03-18T05:51:49;100493.84;;;10.72;100.00
3206;BME280;1615;53.602;11.418;2023-03-18T05:54:15;100490.19;;;10.76;100.00
3206;BME280;1615;53.602;11.418;2023-03-18T05:56:42;100489.97;;;10.73;100.00
3206;BME280;1615;53.602;11.418;2023-03-18T05:59:09;100493.84;;;10.72;100.00
3206;BME280;1615;53.602;11.418;2023-03-18T06:01:36;100488.34;;;10.72;100.00
3206;BME280;1615;53.602;11.418;2023-03-18T06:04:02;100460.66;;;10.55;100.00
3206;BME280;1615;53.602;11.418;2023-03-18T06:06:29;100507.59;;;10.85;100.00
3206;BME280;1615;53.602;11.418;2023-03-18T06:08:54;100514.97;;;10.85;100.00
3206;BME280;1615;53.602;11.418;2023-03-18T06:11:23;100513.78;;;10.91;100.00
3206;BME280;1615;53.602;11.418;2023-03-18T06:13:49;100515.09;;;10.93;100.00
3206;BME280;1615;53.602;11.418;2023-03-18T06:16:16;100515.94;;;10.94;100.00
3206;BME280;1615;53.602;11.418;2023-03-18T06:18:41;100423.69;;;10.39;100.00
3206;BME280;1615;53.602;11.418;2023-03-18T06:21:08;100541.03;;;11.01;100.00
3206;BME280;1615;53.602;11.418;2023-03-18T06:23:34;100528.63;;;11.03;100.00
3206;BME280;1615;53.602;11.418;2023-03-18T06:26:00;100527.22;;;11.06;100.00
3206;BME280;1615;53.602;11.418;2023-03-18T06:28:25;100524.97;;;11.08;100.00
3206;BME280;1615;53.602;11.418;2023-03-18T06:30:54;100516.75;;;11.08;100.00
3206;BME280;1615;53.602;11.418;2023-03-18T06:33:20;100514.00;;;11.08;100.00
3206;BME280;1615;53.602;11.418;2023-03-18T06:35:47;100456.06;;;10.69;100.00
3206;BME280;1615;53.602;11.418;2023-03-18T06:38:12;100517.09;;;11.20;100.00
3206;BME280;1615;53.602;11.418;2023-03-18T06:40:38;100495.53;;;11.00;100.00
3206;BME280;1615;53.602;11.418;2023-03-18T06:43:05;100528.56;;;11.22;100.00
3206;BME280;1615;53.602;11.418;2023-03-18T06:45:31;100414.63;;;10.57;100.00
3206;BME280;1615;53.602;11.418;2023-03-18T06:47:57;100524.59;;;11.28;100.00
3206;BME280;1615;53.602;11.418;2023-03-18T06:50:22;100384.13;;;10.45;100.00
3206;BME280;1615;53.602;11.418;2023-03-18T06:52:48;100540.47;;;11.31;100.00
3206;BME280;1615;53.602;11.418;2023-03-18T06:55:14;100502.63;;;11.01;100.00
3206;BME280;1615;53.602;11.418;2023-03-18T06:57:39;100630.31;;;11.39;100.00
3206;BME280;1615;53.602;11.418;2023-03-18T07:00:06;100542.31;;;11.49;100.00
3206;BME280;1615;53.602;11.418;2023-03-18T07:02:33;100543.44;;;11.48;100.00
3206;BME280;1615;53.602;11.418;2023-03-18T07:04:58;100480.91;;;11.18;100.00
3206;BME280;1615;53.602;11.418;2023-03-18T07:07:24;100543.94;;;11.50;100.00
3206;BME280;1615;53.602;11.418;2023-03-18T07:09:49;100418.91;;;10.76;100.00
3206;BME280;1615;53.602;11.418;2023-03-18T07:12:14;100537.22;;;11.56;100.00
3206;BME280;1615;53.602;11.418;2023-03-18T07:14:40;100538.78;;;11.62;100.00
3206;BME280;1615;53.602;11.418;2023-03-18T07:17:09;100536.25;;;11.65;100.00
3206;BME280;1615;53.602;11.418;2023-03-18T07:19:34;100549.75;;;11.75;100.00
3206;BME280;1615;53.602;11.418;2023-03-18T07:22:00;100552.63;;;11.84;100.00
3206;BME280;1615;53.602;11.418;2023-03-18T07:24:29;100558.91;;;11.84;100.00
3206;BME280;1615;53.602;11.418;2023-03-18T07:26:54;100626.16;;;11.87;100.00
3206;BME280;1615;53.602;11.418;2023-03-18T07:29:20;100563.47;;;11.89;100.00
3206;BME280;1615;53.602;11.418;2023-03-18T07:31:45;100564.09;;;11.86;100.00
3206;BME280;1615;53.602;11.418;2023-03-18T07:34:12;100566.22;;;11.89;100.00
3206;BME280;1615;53.602;11.418;2023-03-18T07:36:39;100573.25;;;11.95;100.00
3206;BME280;1615;53.602;11.418;2023-03-18T07:39:07;100473.19;;;11.47;100.00
3206;BME280;1615;53.602;11.418;2023-03-18T07:41:32;100577.06;;;12.21;100.00
3206;BME280;1615;53.602;11.418;2023-03-18T07:43:57;100565.72;;;12.36;100.00
3206;BME280;1615;53.602;11.418;2023-03-18T07:46:23;100499.53;;;12.10;100.00
3206;BME280;1615;53.602;11.418;2023-03-18T07:48:49;100562.25;;;12.66;100.00
3206;BME280;1615;53.602;11.418;2023-03-18T07:51:15;100476.19;;;12.21;100.00
3206;BME280;1615;53.602;11.418;2023-03-18T07:53:41;100567.28;;;12.86;100.00
3206;BME280;1615;53.602;11.418;2023-03-18T07:56:07;100440.88;;;12.15;100.00
3206;BME280;1615;53.602;11.418;2023-03-18T07:58:34;100575.16;;;13.01;100.00
3206;BME280;1615;53.602;11.418;2023-03-18T08:01:00;100578.00;;;13.09;100.00
3206;BME280;1615;53.602;11.418;2023-03-18T08:03:28;100582.59;;;13.22;100.00
3206;BME280;1615;53.602;11.418;2023-03-18T08:05:54;100583.47;;;13.31;100.00
3206;BME280;1615;53.602;11.418;2023-03-18T08:08:20;100577.72;;;13.50;100.00
3206;BME280;1615;53.602;11.418;2023-03-18T08:10:46;100582.59;;;13.53;100.00
3206;BME280;1615;53.602;11.418;2023-03-18T08:13:12;100449.38;;;12.71;100.00
3206;BME280;1615;53.602;11.418;2023-03-18T08:15:37;100582.97;;;13.60;100.00
3206;BME280;1615;53.602;11.418;2023-03-18T08:18:03;100597.94;;;13.76;100.00
3206;BME280;1615;53.602;11.418;2023-03-18T08:20:29;100584.19;;;13.84;100.00
3206;BME280;1615;53.602;11.418;2023-03-18T08:22:54;100586.69;;;14.03;100.00
3206;BME280;1615;53.602;11.418;2023-03-18T08:25:20;100589.50;;;14.20;100.00
3206;BME280;1615;53.602;11.418;2023-03-18T08:27:47;100594.56;;;14.35;100.00
3206;BME280;1615;53.602;11.418;2023-03-18T08:30:13;100592.59;;;14.44;100.00
3206;BME280;1615;53.602;11.418;2023-03-18T08:32:38;100592.97;;;14.59;100.00
3206;BME280;1615;53.602;11.418;2023-03-18T08:35:04;100596.03;;;14.58;100.00
3206;BME280;1615;53.602;11.418;2023-03-18T08:37:30;100588.91;;;14.65;100.00
3206;BME280;1615;53.602;11.418;2023-03-18T08:39:56;100595.41;;;14.69;100.00
3206;BME280;1615;53.602;11.418;2023-03-18T08:42:22;100598.94;;;14.61;100.00
3206;BME280;1615;53.602;11.418;2023-03-18T08:44:48;100598.94;;;14.61;100.00
3206;BME280;1615;53.602;11.418;2023-03-18T08:47:15;100571.34;;;14.36;100.00
3206;BME280;1615;53.602;11.418;2023-03-18T08:49:40;100608.38;;;14.52;100.00
3206;BME280;1615;53.602;11.418;2023-03-18T08:52:05;100601.72;;;14.53;100.00
3206;BME280;1615;53.602;11.418;2023-03-18T08:54:32;100606.59;;;14.56;100.00
3206;BME280;1615;53.602;11.418;2023-03-18T08:56:57;100622.81;;;14.66;100.00
3206;BME280;1615;53.602;11.418;2023-03-18T08:59:24;100622.84;;;14.83;100.00
3206;BME280;1615;53.602;11.418;2023-03-18T09:01:50;100624.28;;;14.72;100.00
3206;BME280;1615;53.602;11.418;2023-03-18T09:04:17;100616.16;;;14.84;100.00
3206;BME280;1615;53.602;11.418;2023-03-18T09:06:42;100620.88;;;14.92;100.00
3206;BME280;1615;53.602;11.418;2023-03-18T09:09:08;100682.41;;;14.92;100.00
3206;BME280;1615;53.602;11.418;2023-03-18T09:11:33;100627.69;;;15.03;100.00
3206;BME280;1615;53.602;11.418;2023-03-18T09:13:59;100623.44;;;15.14;100.00
3206;BME280;1615;53.602;11.418;2023-03-18T09:16:25;100622.97;;;15.12;100.00
3206;BME280;1615;53.602;11.418;2023-03-18T09:18:50;100621.50;;;15.23;100.00
3206;BME280;1615;53.602;11.418;2023-03-18T09:21:16;100622.81;;;15.17;100.00
3206;BME280;1615;53.602;11.418;2023-03-18T09:23:41;100610.78;;;15.13;100.00
3206;BME280;1615;53.602;11.418;2023-03-18T09:26:07;100618.88;;;15.18;100.00
3206;BME280;1615;53.602;11.418;2023-03-18T09:28:33;100615.31;;;15.26;100.00
3206;BME280;1615;53.602;11.418;2023-03-18T09:30:59;100607.38;;;15.33;100.00
3206;BME280;1615;53.602;11.418;2023-03-18T09:33:25;100606.00;;;15.56;100.00
3206;BME280;1615;53.602;11.418;2023-03-18T09:35:51;100615.53;;;15.67;100.00
3206;BME280;1615;53.602;11.418;2023-03-18T09:38:18;100639.28;;;15.76;100.00
3206;BME280;1615;53.602;11.418;2023-03-18T09:41:01;100626.06;;;15.82;100.00
3206;BME280;1615;53.602;11.418;2023-03-18T09:43:39;100638.25;;;15.81;100.00
3206;BME280;1615;53.602;11.418;2023-03-18T09:57:29;100609.53;;;15.65;100.00
3206;BME280;1615;53.602;11.418;2023-03-18T10:00:05;100638.09;;;15.86;100.00
3206;BME280;1615;53.602;11.418;2023-03-18T10:03:00;100643.16;;;15.84;100.00
3206;BME280;1615;53.602;11.418;2023-03-18T10:05:33;100652.19;;;15.93;100.00
3206;BME280;1615;53.602;11.418;2023-03-18T10:08:10;100653.44;;;16.04;100.00
3206;BME280;1615;53.602;11.418;2023-03-18T10:10:44;100657.00;;;16.13;100.00
3206;BME280;1615;53.602;11.418;2023-03-18T10:13:37;100655.63;;;16.27;100.00
3206;BME280;1615;53.602;11.418;2023-03-18T10:16:10;100545.16;;;15.64;100.00
3206;BME280;1615;53.602;11.418;2023-03-18T10:18:41;100658.34;;;16.36;100.00
3206;BME280;1615;53.602;11.418;2023-03-18T10:21:22;100649.53;;;16.42;100.00
3206;BME280;1615;53.602;11.418;2023-03-18T10:26:31;100277.41;;;14.26;100.00
3206;BME280;1615;53.602;11.418;2023-03-18T10:29:09;100662.56;;;16.71;100.00
3206;BME280;1615;53.602;11.418;2023-03-18T10:32:02;100660.28;;;16.93;100.00
3206;BME280;1615;53.602;11.418;2023-03-18T10:40:33;100658.03;;;17.60;100.00
3206;BME280;1615;53.602;11.418;2023-03-18T10:43:01;100670.19;;;17.80;100.00
3206;BME280;1615;53.602;11.418;2023-03-18T10:45:32;100675.41;;;17.81;100.00
3206;BME280;1615;53.602;11.418;2023-03-18T10:48:04;100594.41;;;17.31;100.00
3206;BME280;1615;53.602;11.418;2023-03-18T10:50:41;100680.22;;;17.60;100.00
3206;BME280;1615;53.602;11.418;2023-03-18T10:53:19;100678.47;;;17.56;100.00
3206;BME280;1615;53.602;11.418;2023-03-18T10:56:01;100359.81;;;15.49;100.00
3206;BME280;1615;53.602;11.418;2023-03-18T10:58:29;100684.47;;;17.58;100.00
3206;BME280;1615;53.602;11.418;2023-03-18T11:00:54;100688.72;;;17.55;100.00
3206;BME280;1615;53.602;11.418;2023-03-18T11:03:26;100654.53;;;17.31;100.00
3206;BME280;1615;53.602;11.418;2023-03-18T11:05:54;100696.94;;;17.52;100.00
3206;BME280;1615;53.602;11.418;2023-03-18T11:13:49;100685.75;;;17.60;100.00
3206;BME280;1615;53.602;11.418;2023-03-18T11:16:36;100698.34;;;17.58;100.00
3206;BME280;1615;53.602;11.418;2023-03-18T11:19:20;100687.72;;;17.60;100.00
3206;BME280;1615;53.602;11.418;2023-03-18T11:21:46;100694.31;;;17.67;100.00
3206;BME280;1615;53.602;11.418;2023-03-18T11:24:25;100693.31;;;17.72;100.00
3206;BME280;1615;53.602;11.418;2023-03-18T11:27:01;100696.16;;;17.63;100.00
3206;BME280;1615;53.602;11.418;2023-03-18T11:29:32;100695.56;;;17.58;100.00
3206;BME280;1615;53.602;11.418;2023-03-18T11:31:59;100697.53;;;17.57;100.00
3206;BME280;1615;53.602;11.418;2023-03-18T11:34:30;100651.84;;;17.22;100.00
3206;BME280;1615;53.602;11.418;2023-03-18T11:36:58;100695.78;;;17.53;100.00
3206;BME280;1615;53.602;11.418;2023-03-18T11:39:28;100712.91;;;17.55;100.00
3206;BME280;1615;53.602;11.418;2023-03-18T11:41:57;100548.31;;;16.62;100.00
3206;BME280;1615;53.602;11.418;2023-03-18T11:44:27;100601.03;;;16.86;100.00
3206;BME280;1615;53.602;11.418;2023-03-18T11:47:02;100712.59;;;17.48;100.00
3206;BME280;1615;53.602;11.418;2023-03-18T11:49:29;100729.31;;;17.39;100.00
3206;BME280;1615;53.602;11.418;2023-03-18T11:53:08;100703.38;;;17.44;100.00
3206;BME280;1615;53.602;11.418;2023-03-18T11:58:06;100705.50;;;17.59;100.00
3206;BME280;1615;53.602;11.418;2023-03-18T12:06:24;100703.44;;;18.00;100.00
3206;BME280;1615;53.602;11.418;2023-03-18T12:11:57;100703.38;;;18.33;100.00
3206;BME280;1615;53.602;11.418;2023-03-18T12:14:42;100702.56;;;18.32;100.00
3206;BME280;1615;53.602;11.418;2023-03-18T12:17:31;100696.19;;;18.32;100.00
3206;BME280;1615;53.602;11.418;2023-03-18T12:22:52;100710.06;;;18.44;100.00
3206;BME280;1615;53.602;11.418;2023-03-18T12:33:47;100705.28;;;18.20;100.00
3206;BME280;1615;53.602;11.418;2023-03-18T12:39:25;100705.78;;;18.22;100.00
3206;BME280;1615;53.602;11.418;2023-03-18T12:42:16;100710.28;;;18.15;100.00
3206;BME280;1615;53.602;11.418;2023-03-18T12:44:54;100700.59;;;17.76;100.00
3206;BME280;1615;53.602;11.418;2023-03-18T12:47:44;100706.56;;;18.23;100.00
3206;BME280;1615;53.602;11.418;2023-03-18T12:50:16;100698.84;;;18.16;100.00
3206;BME280;1615;53.602;11.418;2023-03-18T12:52:48;100703.09;;;18.26;100.00
3206;BME280;1615;53.602;11.418;2023-03-18T12:55:26;100717.25;;;18.45;100.00
3206;BME280;1615;53.602;11.418;2023-03-18T13:01:04;100675.16;;;18.43;100.00
3206;BME280;1615;53.602;11.418;2023-03-18T13:03:39;100700.84;;;18.52;100.00
3206;BME280;1615;53.602;11.418;2023-03-18T13:09:06;100724.53;;;18.61;100.00
3206;BME280;1615;53.602;11.418;2023-03-18T13:14:59;100712.16;;;18.71;100.00
3206;BME280;1615;53.602;11.418;2023-03-18T13:17:30;100718.88;;;18.70;100.00
3206;BME280;1615;53.602;11.418;2023-03-18T13:20:02;100715.88;;;18.63;100.00
3206;BME280;1615;53.602;11.418;2023-03-18T13:30:55;100705.13;;;18.37;100.00
3206;BME280;1615;53.602;11.418;2023-03-18T13:36:24;100708.69;;;18.50;100.00
3206;BME280;1615;53.602;11.418;2023-03-18T13:44:13;100709.16;;;18.64;100.00
3206;BME280;1615;53.602;11.418;2023-03-18T13:46:45;100714.25;;;18.62;100.00
3206;BME280;1615;53.602;11.418;2023-03-18T13:49:19;100708.94;;;18.57;100.00
3206;BME280;1615;53.602;11.418;2023-03-18T13:51:52;100712.72;;;18.52;100.00
3206;BME280;1615;53.602;11.418;2023-03-18T13:54:20;100716.09;;;18.58;100.00
3206;BME280;1615;53.602;11.418;2023-03-18T13:56:51;100710.53;;;18.70;100.00
3206;BME280;1615;53.602;11.418;2023-03-18T14:01:58;100711.00;;;18.72;100.00
3206;BME280;1615;53.602;11.418;2023-03-18T14:04:45;100608.28;;;18.12;100.00
3206;BME280;1615;53.602;11.418;2023-03-18T14:07:19;100710.19;;;18.71;100.00
3206;BME280;1615;53.602;11.418;2023-03-18T14:09:47;100711.69;;;18.69;100.00
3206;BME280;1615;53.602;11.418;2023-03-18T14:15:36;100704.28;;;18.61;100.00
3206;BME280;1615;53.602;11.418;2023-03-18T14:18:03;100714.72;;;18.64;100.00
3206;BME280;1615;53.602;11.418;2023-03-18T14:20:41;100709.38;;;18.59;100.00
3206;BME280;1615;53.602;11.418;2023-03-18T14:26:00;100711.09;;;18.63;100.00